createdAt,value
2023-05-13T08:01:12.689Z,94950.00
2023-05-13T08:02:12.768Z,94948.00
2023-05-13T08:03:12.840Z,94950.00
2023-05-13T08:04:13.005Z,94950.00
2023-05-13T08:05:12.839Z,94946.00
2023-05-13T08:06:12.834Z,94946.00
2023-05-13T08:07:12.849Z,94946.00
2023-05-13T08:08:12.884Z,94946.00
2023-05-13T08:09:12.915Z,94948.00
2023-05-13T08:10:12.996Z,94946.00
2023-05-13T08:11:13.002Z,94948.00
2023-05-13T08:12:13.057Z,94948.00
2023-05-13T08:13:13.085Z,94946.00
2023-05-13T08:14:13.126Z,94944.00
2023-05-13T08:15:13.153Z,94946.00
2023-05-13T08:16:13.232Z,94946.00
2023-05-13T08:17:13.232Z,94946.00
2023-05-13T08:18:13.272Z,94944.00
2023-05-13T08:19:13.377Z,94944.00
2023-05-13T08:20:13.279Z,94944.00
2023-05-13T08:21:13.332Z,94942.00
2023-05-13T08:22:13.338Z,94942.00
2023-05-13T08:23:13.333Z,94938.00
2023-05-13T08:24:13.335Z,94936.00
2023-05-13T08:25:13.377Z,94938.00
2023-05-13T08:26:13.402Z,94938.00
2023-05-13T08:27:13.396Z,94936.00
2023-05-13T08:28:13.430Z,94935.00
2023-05-13T08:29:13.474Z,94935.00
2023-05-13T08:30:13.455Z,94933.00
2023-05-13T08:31:13.656Z,94931.00
2023-05-13T08:32:13.651Z,94931.00
2023-05-13T08:33:13.549Z,94933.00
2023-05-13T08:34:13.563Z,94931.00
2023-05-13T08:35:13.544Z,94929.00
2023-05-13T08:36:13.552Z,94929.00
2023-05-13T08:37:13.562Z,94929.00
2023-05-13T08:38:13.567Z,94931.00
2023-05-13T08:39:13.596Z,94931.00
2023-05-13T08:40:13.638Z,94929.00
2023-05-13T08:41:13.666Z,94929.00
2023-05-13T08:42:13.633Z,94929.00
2023-05-13T08:43:13.630Z,94929.00
2023-05-13T08:44:13.671Z,94929.00
2023-05-13T08:45:13.637Z,94929.00
2023-05-13T08:46:13.693Z,94929.00
2023-05-13T08:47:13.738Z,94927.00
2023-05-13T08:48:13.717Z,94923.00
2023-05-13T08:49:13.730Z,94927.00
2023-05-13T08:50:13.686Z,94923.00
2023-05-13T08:51:13.707Z,94925.00
2023-05-13T08:52:13.705Z,94919.00
2023-05-13T08:53:13.739Z,94921.00
2023-05-13T08:54:13.770Z,94921.00
2023-05-13T08:55:13.764Z,94917.00
2023-05-13T08:56:13.791Z,94917.00
2023-05-13T08:57:13.757Z,94919.00
2023-05-13T08:58:13.784Z,94921.00
2023-05-13T08:59:13.796Z,94919.00
2023-05-13T09:00:13.790Z,94919.00
2023-05-13T09:01:13.875Z,94917.00
2023-05-13T09:02:13.804Z,94919.00
2023-05-13T09:03:13.825Z,94917.00
2023-05-13T09:04:13.832Z,94917.00
2023-05-13T09:05:13.866Z,94919.00
2023-05-13T09:06:13.876Z,94917.00
2023-05-13T09:07:13.866Z,94915.00
2023-05-13T09:08:13.858Z,94917.00
2023-05-13T09:09:13.861Z,94917.00
2023-05-13T09:10:13.868Z,94915.00
2023-05-13T09:11:13.895Z,94915.00
2023-05-13T09:12:13.878Z,94917.00
2023-05-13T09:13:13.901Z,94915.00
2023-05-13T09:14:13.852Z,94915.00
2023-05-13T09:15:13.896Z,94915.00
2023-05-13T09:16:13.925Z,94917.00
2023-05-13T09:17:13.882Z,94913.00
2023-05-13T09:18:16.400Z,94911.00
2023-05-13T09:19:14.052Z,94909.00
2023-05-13T09:20:13.898Z,94909.00
2023-05-13T09:21:13.900Z,94911.00
2023-05-13T09:22:13.861Z,94909.00
2023-05-13T09:23:13.874Z,94897.00
2023-05-13T09:24:13.897Z,94905.00
2023-05-13T09:25:13.866Z,94897.00
2023-05-13T09:26:13.859Z,94897.00
2023-05-13T09:27:13.846Z,94895.00
2023-05-13T09:28:13.837Z,94895.00
2023-05-13T09:29:13.834Z,94893.00
2023-05-13T09:30:13.865Z,94891.00
2023-05-13T09:31:13.832Z,94891.00
2023-05-13T09:32:13.802Z,94890.00
2023-05-13T09:33:13.879Z,94891.00
2023-05-13T09:34:13.842Z,94891.00
2023-05-13T09:35:13.803Z,94888.00
2023-05-13T09:36:13.790Z,94888.00
2023-05-13T09:37:13.799Z,94890.00
2023-05-13T09:38:13.765Z,94888.00
2023-05-13T09:39:13.764Z,94890.00
2023-05-13T09:40:13.758Z,94890.00
2023-05-13T09:41:13.756Z,94888.00
2023-05-13T09:42:13.713Z,94886.00
2023-05-13T09:43:13.761Z,94884.00
2023-05-13T09:44:13.745Z,94886.00
2023-05-13T09:45:13.738Z,94884.00
2023-05-13T09:46:13.761Z,94882.00
2023-05-13T09:47:13.777Z,94882.00
2023-05-13T09:48:13.720Z,94884.00
2023-05-13T09:49:13.703Z,94884.00
2023-05-13T09:50:13.701Z,94882.00
2023-05-13T09:51:13.686Z,94884.00
2023-05-13T09:52:13.663Z,94882.00
2023-05-13T09:53:13.689Z,94882.00
2023-05-13T09:54:13.677Z,94880.00
2023-05-13T09:55:13.668Z,94882.00
2023-05-13T09:56:13.651Z,94880.00
2023-05-13T09:57:13.663Z,94880.00
2023-05-13T09:58:13.651Z,94874.00
2023-05-13T09:59:13.674Z,94878.00
2023-05-13T10:00:24.799Z,94880.00
2023-05-13T10:01:14.686Z,94880.00
2023-05-13T10:02:13.591Z,94876.00
2023-05-13T10:03:13.668Z,94876.00
2023-05-13T10:04:13.634Z,94870.00
2023-05-13T10:05:13.605Z,94870.00
2023-05-13T10:06:13.613Z,94872.00
2023-05-13T10:07:13.605Z,94870.00
2023-05-13T10:08:13.578Z,94872.00
2023-05-13T10:09:13.567Z,94874.00
2023-05-13T10:10:13.589Z,94874.00
2023-05-13T10:11:14.873Z,94878.00
2023-05-13T10:12:13.564Z,94876.00
2023-05-13T10:13:13.549Z,94874.00
2023-05-13T10:14:13.552Z,94872.00
2023-05-13T10:15:13.508Z,94872.00
2023-05-13T10:16:13.577Z,94872.00
2023-05-13T10:17:13.523Z,94868.00
2023-05-13T10:18:13.605Z,94870.00
2023-05-13T10:19:13.709Z,94868.00
2023-05-13T10:20:13.578Z,94870.00
2023-05-13T10:21:13.666Z,94866.00
2023-05-13T10:22:13.696Z,94868.00
2023-05-13T10:23:13.710Z,94866.00
2023-05-13T10:24:13.713Z,94862.00
2023-05-13T10:25:13.775Z,94866.00
2023-05-13T10:26:13.787Z,94864.00
2023-05-13T10:27:13.847Z,94864.00
2023-05-13T10:28:13.879Z,94866.00
2023-05-13T10:29:13.877Z,94864.00
2023-05-13T10:30:13.909Z,94864.00
2023-05-13T10:31:13.926Z,94862.00
2023-05-13T10:32:14.054Z,94864.00
2023-05-13T10:33:14.116Z,94862.00
2023-05-13T10:34:14.041Z,94858.00
2023-05-13T10:35:14.075Z,94856.00
2023-05-13T10:36:14.086Z,94856.00
2023-05-13T10:37:14.127Z,94858.00
2023-05-13T10:38:14.144Z,94852.00
2023-05-13T10:39:14.198Z,94854.00
2023-05-13T10:40:14.242Z,94850.00
2023-05-13T10:41:14.342Z,94850.00
2023-05-13T10:42:14.288Z,94848.00
2023-05-13T10:43:14.351Z,94846.00
2023-05-13T10:44:14.392Z,94844.00
2023-05-13T10:45:14.493Z,94844.00
2023-05-13T10:46:14.490Z,94843.00
2023-05-13T10:47:14.606Z,94843.00
2023-05-13T10:48:14.765Z,94839.00
2023-05-13T10:49:14.618Z,94844.00
2023-05-13T10:50:14.638Z,94843.00
2023-05-13T10:51:14.701Z,94844.00
2023-05-13T10:52:14.730Z,94844.00
2023-05-13T10:53:14.729Z,94846.00
2023-05-13T10:54:14.761Z,94843.00
2023-05-13T10:55:14.840Z,94844.00
2023-05-13T10:56:14.866Z,94841.00
2023-05-13T10:57:16.241Z,94844.00
2023-05-13T10:58:15.004Z,94843.00
2023-05-13T10:59:14.967Z,94841.00
2023-05-13T11:00:15.020Z,94841.00
2023-05-13T11:01:15.113Z,94841.00
2023-05-13T11:02:15.132Z,94844.00
2023-05-13T11:03:15.377Z,94843.00
2023-05-13T11:04:15.208Z,94843.00
2023-05-13T11:05:15.250Z,94843.00
2023-05-13T11:06:15.293Z,94844.00
2023-05-13T11:07:15.350Z,94846.00
2023-05-13T11:08:15.338Z,94843.00
2023-05-13T11:09:15.463Z,94841.00
2023-05-13T11:10:15.520Z,94843.00
2023-05-13T11:11:15.543Z,94844.00
2023-05-13T11:12:15.579Z,94844.00
2023-05-13T11:13:15.609Z,94841.00
2023-05-13T11:14:15.656Z,94839.00
2023-05-13T11:15:15.707Z,94839.00
2023-05-13T11:16:15.781Z,94837.00
2023-05-13T11:17:15.798Z,94839.00
2023-05-13T11:18:15.871Z,94837.00
2023-05-13T11:19:15.939Z,94839.00
2023-05-13T11:20:15.964Z,94835.00
2023-05-13T11:21:16.041Z,94837.00
2023-05-13T11:22:16.090Z,94839.00
2023-05-13T11:23:16.115Z,94837.00
2023-05-13T11:24:16.176Z,94839.00
2023-05-13T11:25:16.242Z,94835.00
2023-05-13T11:26:16.253Z,94839.00
2023-05-13T11:27:16.331Z,94839.00
2023-05-13T11:28:16.368Z,94837.00
2023-05-13T11:29:16.427Z,94837.00
2023-05-13T11:30:16.508Z,94835.00
2023-05-13T11:31:16.560Z,94835.00
2023-05-13T11:32:16.637Z,94833.00
2023-05-13T11:33:16.614Z,94831.00
2023-05-13T11:34:16.704Z,94833.00
2023-05-13T11:35:16.741Z,94831.00
2023-05-13T11:36:16.776Z,94825.00
2023-05-13T11:37:16.863Z,94825.00
2023-05-13T11:38:16.919Z,94821.00
2023-05-13T11:39:16.988Z,94823.00
2023-05-13T11:40:17.045Z,94821.00
2023-05-13T11:41:17.083Z,94817.00
2023-05-13T11:42:17.139Z,94817.00
2023-05-13T11:43:17.186Z,94817.00
2023-05-13T11:44:17.244Z,94815.00
2023-05-13T11:45:17.282Z,94813.00
2023-05-13T11:46:17.548Z,94815.00
2023-05-13T11:47:17.391Z,94815.00
2023-05-13T11:48:17.458Z,94811.00
2023-05-13T11:49:17.522Z,94809.00
2023-05-13T11:50:17.572Z,94807.00
2023-05-13T11:51:17.626Z,94807.00
2023-05-13T11:52:17.674Z,94805.00
2023-05-13T11:53:17.734Z,94805.00
2023-05-13T11:54:17.780Z,94803.00
2023-05-13T11:55:17.831Z,94807.00
2023-05-13T11:56:17.881Z,94801.00
2023-05-13T11:57:17.937Z,94803.00
2023-05-13T11:58:17.996Z,94805.00
2023-05-13T11:59:18.040Z,94803.00
2023-05-13T12:00:18.121Z,94803.00
2023-05-13T12:01:18.160Z,94801.00
2023-05-13T12:02:18.242Z,94801.00
2023-05-13T12:03:18.302Z,94801.00
2023-05-13T12:04:18.350Z,94803.00
2023-05-13T12:05:18.480Z,94801.00
2023-05-13T12:06:18.463Z,94799.00
2023-05-13T12:07:18.463Z,94799.00
2023-05-13T12:08:18.570Z,94797.00
2023-05-13T12:09:18.647Z,94799.00
2023-05-13T12:10:18.694Z,94797.00
2023-05-13T12:11:18.714Z,94797.00
2023-05-13T12:12:18.793Z,94797.00
2023-05-13T12:13:18.842Z,94799.00
2023-05-13T12:14:18.875Z,94797.00
2023-05-13T12:15:18.930Z,94797.00
2023-05-13T12:16:19.058Z,94799.00
2023-05-13T12:17:19.082Z,94797.00
2023-05-13T12:18:19.098Z,94797.00
2023-05-13T12:19:19.129Z,94796.00
2023-05-13T12:20:19.203Z,94796.00
2023-05-13T12:21:19.258Z,94796.00
2023-05-13T12:22:19.290Z,94797.00
2023-05-13T12:23:19.394Z,94796.00
2023-05-13T12:24:19.425Z,94794.00
2023-05-13T12:25:19.541Z,94792.00
2023-05-13T12:26:19.517Z,94790.00
2023-05-13T12:27:19.607Z,94790.00
2023-05-13T12:28:19.671Z,94790.00
2023-05-13T12:29:19.702Z,94790.00
2023-05-13T12:30:19.764Z,94790.00
2023-05-13T12:31:19.804Z,94792.00
2023-05-13T12:32:19.820Z,94792.00
2023-05-13T12:33:19.856Z,94790.00
2023-05-13T12:34:19.918Z,94788.00
2023-05-13T12:35:20.136Z,94788.00
2023-05-13T12:36:20.201Z,94786.00
2023-05-13T12:37:20.107Z,94786.00
2023-05-13T12:38:20.143Z,94786.00
2023-05-13T12:39:20.158Z,94788.00
2023-05-13T12:40:20.248Z,94788.00
2023-05-13T12:41:20.280Z,94786.00
2023-05-13T12:42:20.353Z,94786.00
2023-05-13T12:43:20.456Z,94788.00
2023-05-13T12:44:20.421Z,94786.00
2023-05-13T12:45:20.670Z,94782.00
2023-05-13T12:46:20.586Z,94788.00
2023-05-13T12:47:20.573Z,94790.00
2023-05-13T12:48:20.619Z,94788.00
2023-05-13T12:49:20.673Z,94790.00
2023-05-13T12:50:20.758Z,94788.00
2023-05-13T12:51:20.797Z,94790.00
2023-05-13T12:52:20.859Z,94788.00
2023-05-13T12:53:20.904Z,94788.00
2023-05-13T12:54:20.949Z,94788.00
2023-05-13T12:55:21.181Z,94786.00
2023-05-13T12:56:21.044Z,94788.00
2023-05-13T12:57:21.108Z,94786.00
2023-05-13T12:58:21.152Z,94788.00
2023-05-13T12:59:21.236Z,94788.00
2023-05-13T13:00:21.316Z,94790.00
